Time;durP1;ratioP1;P1;durP2;ratioP2;P2;SDS_P1;SDS_P2;PMS_P1;PMS_P2;Temp;Humidity;BMP_temperature;BMP_pressure;BME280_temperature;BME280_humidity;BME280_pressure;Samples;Min_cycle;Max_cycle;Signal;HPM_P1;HPM_P2
2021/07/10 00:00:29;;;;;;;12.10;7.00;;;;;;;20.14;80.85;100545.72;93175;1214;74353;-61
2021/07/10 00:03:00;;;;;;;10.70;6.60;;;;;;;20.14;81.08;100541.06;93152;1209;80804;-61
2021/07/10 00:05:12;;;;;;;9.50;6.90;;;;;;;20.17;80.76;100535.08;93187;1209;68377;-61
2021/07/10 00:07:20;;;;;;;8.60;6.10;;;;;;;20.16;81.13;100541.64;93198;1209;69208;-63
2021/07/10 00:09:28;;;;;;;10.20;6.90;;;;;;;20.17;81.33;100539.73;93178;1209;86487;-61
2021/07/10 00:11:36;;;;;;;8.30;6.50;;;;;;;20.19;81.33;100532.11;93167;1209;74112;-61
2021/07/10 00:13:43;;;;;;;8.40;7.40;;;;;;;20.21;80.98;100527.20;93119;1209;81463;-66
2021/07/10 00:15:51;;;;;;;9.30;7.20;;;;;;;20.22;81.16;100532.42;93124;1209;68076;-67
2021/07/10 00:17:59;;;;;;;10.00;7.10;;;;;;;20.25;81.09;100528.38;93390;1158;67807;-61
2021/07/10 00:20:10;;;;;;;11.80;7.40;;;;;;;20.26;81.21;100528.14;93187;1206;86284;-61
2021/07/10 00:22:20;;;;;;;9.10;7.20;;;;;;;20.28;81.29;100517.74;93219;1206;74479;-63
2021/07/10 00:24:31;;;;;;;14.80;7.40;;;;;;;20.28;81.32;100520.48;93182;1207;80369;-67
2021/07/10 00:26:41;;;;;;;8.30;6.60;;;;;;;20.28;81.29;100514.16;93152;1210;67532;-67
2021/07/10 00:28:50;;;;;;;9.80;7.60;;;;;;;20.32;81.03;100513.44;93161;1209;68567;-67
2021/07/10 00:31:00;;;;;;;11.90;7.10;;;;;;;20.30;81.34;100514.77;93152;1209;85740;-68
2021/07/10 00:33:08;;;;;;;8.40;7.10;;;;;;;20.34;81.13;100516.75;93145;1208;74423;-67
2021/07/10 00:35:21;;;;;;;10.20;7.30;;;;;;;20.36;81.24;100511.83;93168;1209;80542;-67
2021/07/10 00:37:29;;;;;;;12.10;7.80;;;;;;;20.42;81.15;100516.33;93193;1209;65946;-67
2021/07/10 00:39:37;;;;;;;9.80;7.20;;;;;;;20.44;81.30;100516.90;93191;1210;68495;-67
2021/07/10 00:41:44;;;;;;;10.00;8.10;;;;;;;20.43;81.07;100509.77;93149;1208;87019;-67
2021/07/10 00:43:53;;;;;;;10.90;7.20;;;;;;;20.41;81.61;100506.42;93158;1209;74715;-60
2021/07/10 00:46:01;;;;;;;10.50;7.70;;;;;;;20.43;81.35;100501.53;93166;1208;81538;-60
2021/07/10 00:48:09;;;;;;;8.90;7.00;;;;;;;20.40;81.29;100496.55;93151;1207;67931;-66
2021/07/10 00:50:21;;;;;;;8.30;7.30;;;;;;;20.44;81.39;100492.20;93207;1209;69521;-66
2021/07/10 00:52:28;;;;;;;10.50;8.00;;;;;;;20.42;81.61;100491.63;93202;1208;87749;-66
2021/07/10 00:54:36;;;;;;;12.90;8.30;;;;;;;20.42;81.56;100488.88;93172;1208;74999;-67
2021/07/10 00:56:45;;;;;;;12.40;7.90;;;;;;;20.40;81.46;100496.55;93122;1208;81649;-66
2021/07/10 00:58:54;;;;;;;9.60;7.70;;;;;;;20.45;81.31;100493.03;93127;1209;69009;-60
2021/07/10 01:01:03;;;;;;;10.40;7.80;;;;;;;20.46;81.26;100489.22;93178;1209;67730;-60
2021/07/10 01:03:14;;;;;;;8.50;7.20;;;;;;;20.45;81.35;100488.38;93158;1209;86045;-67
2021/07/10 01:05:24;;;;;;;10.90;8.10;;;;;;;20.46;81.27;100479.05;93163;1208;75307;-67
2021/07/10 01:07:34;;;;;;;13.20;7.90;;;;;;;20.50;81.33;100473.89;93133;1208;81644;-61
2021/07/10 01:09:42;;;;;;;9.30;7.20;;;;;;;20.49;81.29;100475.80;93166;1208;67489;-61
2021/07/10 01:11:50;;;;;;;9.90;7.70;;;;;;;20.40;81.48;100469.10;93197;1203;70214;-61
2021/07/10 01:13:58;;;;;;;8.80;7.30;;;;;;;20.37;81.17;100458.63;93138;1209;86888;-67
2021/07/10 01:16:09;;;;;;;13.60;8.10;;;;;;;20.38;81.29;100460.27;93143;1209;76089;-67
2021/07/10 01:18:16;;;;;;;11.00;7.80;;;;;;;20.35;81.17;100460.80;93183;1204;80219;-68
2021/07/10 01:20:27;;;;;;;10.70;7.40;;;;;;;20.33;81.45;100456.62;93157;1209;65610;-67
2021/07/10 01:22:35;;;;;;;11.50;7.90;;;;;;;20.32;81.22;100457.72;93129;1203;69210;-68
2021/07/10 01:24:43;;;;;;;11.60;7.70;;;;;;;20.30;81.17;100457.95;93205;1207;86443;-68
2021/07/10 01:26:50;;;;;;;11.20;7.40;;;;;;;20.28;81.06;100453.80;93173;1209;75101;-68
2021/07/10 01:29:01;;;;;;;12.00;8.00;;;;;;;20.28;81.23;100457.38;93186;1211;81466;-61
2021/07/10 01:31:09;;;;;;;10.70;8.30;;;;;;;20.26;81.06;100445.84;93156;1210;65632;-61
2021/07/10 01:33:19;;;;;;;9.20;8.00;;;;;;;20.23;81.08;100432.59;93214;1208;68345;-68
2021/07/10 01:35:27;;;;;;;9.80;8.50;;;;;;;20.19;81.19;100428.67;93205;1208;87523;-68
2021/07/10 01:37:35;;;;;;;10.80;8.40;;;;;;;20.14;81.26;100422.27;93201;1203;75307;-67
2021/07/10 01:39:43;;;;;;;13.60;8.90;;;;;;;20.09;81.24;100419.46;93150;1214;81521;-68
2021/07/10 01:41:53;;;;;;;9.70;8.20;;;;;;;20.05;81.13;100427.38;93148;1209;65955;-68
2021/07/10 01:44:01;;;;;;;11.50;8.30;;;;;;;20.02;81.17;100427.88;93152;1209;69078;-68
2021/07/10 01:46:12;;;;;;;11.50;8.50;;;;;;;19.93;81.18;100432.11;93216;1214;86308;-67
2021/07/10 01:48:23;;;;;;;9.80;8.60;;;;;;;19.93;81.16;100430.20;93168;1208;73881;-68
2021/07/10 01:50:31;;;;;;;11.40;8.90;;;;;;;19.90;81.45;100425.22;93157;1208;81707;-68
2021/07/10 01:52:40;;;;;;;15.40;9.20;;;;;;;19.90;81.57;100427.96;93213;1204;67072;-67
2021/07/10 01:54:48;;;;;;;11.70;10.00;;;;;;;19.87;81.30;100419.39;93202;1209;70453;-68
2021/07/10 01:56:56;;;;;;;12.20;8.90;;;;;;;19.86;81.33;100420.49;93190;1209;85510;-67
2021/07/10 01:59:04;;;;;;;10.70;9.20;;;;;;;19.86;81.54;100425.98;93148;1208;76186;-61
2021/07/10 02:01:14;;;;;;;13.50;9.20;;;;;;;19.87;81.44;100433.10;92951;1209;81580;-62
2021/07/10 02:03:22;;;;;;;10.50;9.50;;;;;;;19.85;81.49;100438.02;93141;1210;67906;-66
2021/07/10 02:05:31;;;;;;;14.40;10.30;;;;;;;19.79;81.74;100445.32;93149;1208;69107;-67
2021/07/10 02:07:42;;;;;;;13.30;9.20;;;;;;;19.78;81.53;100454.61;93168;1208;86733;-67
2021/07/10 02:09:50;;;;;;;12.10;9.50;;;;;;;19.77;81.65;100458.45;93164;1208;73990;-67
2021/07/10 02:12:00;;;;;;;11.10;8.90;;;;;;;19.75;81.64;100459.78;93151;1214;80652;-66
2021/07/10 02:14:08;;;;;;;13.10;10.00;;;;;;;19.75;81.92;100460.59;93131;1214;67641;-67
2021/07/10 02:16:16;;;;;;;12.30;10.50;;;;;;;19.82;81.88;100468.66;93161;1209;70683;-66
2021/07/10 02:18:24;;;;;;;14.70;10.50;;;;;;;19.86;82.03;100464.36;93179;1209;87163;-66
2021/07/10 02:20:31;;;;;;;13.30;9.80;;;;;;;19.84;82.04;100467.34;93138;1207;75013;-67
2021/07/10 02:22:39;;;;;;;11.90;9.60;;;;;;;19.83;81.92;100473.08;93186;1209;81870;-61
2021/07/10 02:24:47;;;;;;;10.50;9.10;;;;;;;19.83;81.78;100475.82;93145;1207;67216;-60
2021/07/10 02:26:54;;;;;;;11.40;9.00;;;;;;;19.82;82.01;100468.66;93176;1209;69707;-60
2021/07/10 02:29:04;;;;;;;13.80;10.00;;;;;;;19.83;82.00;100468.40;93157;1207;85821;-66
2021/07/10 02:31:12;;;;;;;14.60;9.90;;;;;;;19.85;81.98;100473.66;93149;1209;74270;-67
2021/07/10 02:33:20;;;;;;;15.30;10.40;;;;;;;19.85;81.98;100476.39;93183;1207;81152;-61
2021/07/10 02:35:29;;;;;;;13.10;10.20;;;;;;;19.83;82.03;100464.86;93138;1207;68206;-60
2021/07/10 02:37:37;;;;;;;14.20;9.90;;;;;;;19.87;82.24;100466.84;93158;1209;69044;-67
2021/07/10 02:39:45;;;;;;;12.50;10.80;;;;;;;19.94;82.22;100453.78;93166;1214;88965;-66
2021/07/10 02:41:52;;;;;;;16.30;10.50;;;;;;;20.00;82.11;100462.92;93134;1209;75330;-68
2021/07/10 02:44:00;;;;;;;16.20;11.10;;;;;;;19.99;82.05;100467.61;93140;1209;82777;-67
2021/07/10 02:46:08;;;;;;;11.70;10.10;;;;;;;20.02;82.30;100477.25;93149;1209;67131;-67
2021/07/10 02:48:16;;;;;;;14.60;10.10;;;;;;;20.00;82.26;100482.13;92961;1213;70038;-61
2021/07/10 02:50:26;;;;;;;13.50;10.50;;;;;;;19.98;82.33;100484.30;93143;1209;86093;-61
2021/07/10 02:52:34;;;;;;;11.50;10.10;;;;;;;19.96;82.40;100480.97;93177;1208;75064;-61
2021/07/10 02:54:41;;;;;;;14.10;11.20;;;;;;;20.02;82.47;100490.95;93132;1207;81123;-61
2021/07/10 02:56:52;;;;;;;14.20;10.20;;;;;;;20.05;82.38;100490.46;93143;1209;67914;-61
2021/07/10 02:59:02;;;;;;;12.40;10.60;;;;;;;20.04;82.49;100494.27;93135;1208;69834;-61
2021/07/10 03:01:10;;;;;;;13.60;10.90;;;;;;;20.06;82.32;100483.04;93155;1208;86818;-60
2021/07/10 03:03:21;;;;;;;15.20;11.60;;;;;;;20.07;82.53;100484.72;93193;1209;74862;-60
2021/07/10 03:05:33;;;;;;;15.20;12.30;;;;;;;20.06;82.55;100483.88;93150;1208;81314;-60
2021/07/10 03:07:42;;;;;;;14.40;11.80;;;;;;;20.04;82.27;100483.30;93226;1209;67996;-60
2021/07/10 03:09:53;;;;;;;13.30;11.30;;;;;;;20.01;82.37;100492.86;93167;1214;69361;-60
2021/07/10 03:12:01;;;;;;;14.40;11.50;;;;;;;20.09;82.41;100483.38;93159;1209;87533;-61
2021/07/10 03:14:09;;;;;;;15.30;11.80;;;;;;;20.11;82.53;100492.19;93141;1208;74028;-61
2021/07/10 03:16:16;;;;;;;14.10;11.70;;;;;;;20.13;82.39;100484.56;93150;1207;80413;-60
2021/07/10 03:18:28;;;;;;;16.10;12.60;;;;;;;20.12;82.72;100482.89;93119;1208;65940;-66
2021/07/10 03:20:35;;;;;;;14.40;11.30;;;;;;;20.12;82.68;100490.28;93130;1209;68849;-66
2021/07/10 03:22:44;;;;;;;16.70;12.70;;;;;;;20.15;82.77;100487.04;93099;1209;85431;-61
2021/07/10 03:24:51;;;;;;;16.00;12.30;;;;;;;20.20;82.58;100487.95;93120;1208;75527;-61
2021/07/10 03:26:59;;;;;;;16.00;11.70;;;;;;;20.27;82.80;100490.57;93167;1208;82292;-61
2021/07/10 03:29:06;;;;;;;16.70;13.00;;;;;;;20.28;82.82;100492.21;93136;1208;67630;-61
2021/07/10 03:31:14;;;;;;;16.80;14.00;;;;;;;20.31;82.77;100500.78;93144;1208;67841;-60
2021/07/10 03:33:23;;;;;;;15.70;13.90;;;;;;;20.31;82.97;100498.04;93075;1209;85384;-66
2021/07/10 03:35:34;;;;;;;16.50;13.70;;;;;;;20.38;82.75;100486.91;93189;1209;74041;-67
2021/07/10 03:38:07;;;;;;;20.80;14.50;;;;;;;20.48;82.68;100479.65;92920;1208;81265;-62
2021/07/10 03:40:19;;;;;;;17.30;14.60;;;;;;;20.59;82.71;100477.88;93138;1204;67944;-61
2021/07/10 03:42:27;;;;;;;20.60;15.10;;;;;;;20.69;82.69;100490.90;93163;1208;70326;-67
2021/07/10 03:44:35;;;;;;;16.60;14.80;;;;;;;20.65;82.62;100498.00;93173;1209;86832;-67
2021/07/10 03:46:42;;;;;;;17.00;13.80;;;;;;;20.64;82.61;100507.30;93166;1208;75751;-68
2021/07/10 03:48:50;;;;;;;17.40;12.50;;;;;;;20.61;82.39;100508.64;93161;1209;81700;-61
2021/07/10 03:51:01;;;;;;;15.50;13.60;;;;;;;20.62;82.55;100512.23;93169;1209;67918;-61
2021/07/10 03:53:09;;;;;;;16.40;13.80;;;;;;;20.57;82.53;100508.31;93157;1214;70206;-62
2021/07/10 03:55:19;;;;;;;15.30;13.50;;;;;;;20.59;82.42;100511.66;93171;1209;86905;-61
2021/07/10 03:57:27;;;;;;;18.30;13.80;;;;;;;20.57;82.39;100507.50;93162;1207;74096;-67
2021/07/10 03:59:35;;;;;;;15.30;13.50;;;;;;;20.52;82.45;100502.75;93156;1209;80632;-67
2021/07/10 04:01:45;;;;;;;16.40;12.90;;;;;;;20.50;82.46;100501.34;93117;1209;67190;-67
2021/07/10 04:03:53;;;;;;;19.30;12.60;;;;;;;20.48;82.42;100509.84;93164;1209;69118;-67
2021/07/10 04:06:03;;;;;;;15.80;13.70;;;;;;;20.53;82.43;100509.91;93149;1209;87133;-67
2021/07/10 04:08:11;;;;;;;16.20;13.40;;;;;;;20.53;82.40;100515.40;93162;1203;75052;-67
2021/07/10 04:10:20;;;;;;;16.30;12.60;;;;;;;20.51;82.59;100511.25;93122;1208;80403;-67
2021/07/10 04:12:27;;;;;;;14.00;12.40;;;;;;;20.52;82.61;100510.98;93138;1208;69130;-67
2021/07/10 04:14:37;;;;;;;14.40;12.80;;;;;;;20.48;82.47;100509.84;93132;1209;68588;-67
2021/07/10 04:16:44;;;;;;;17.90;13.50;;;;;;;20.45;82.66;100499.36;93175;1208;86215;-67
2021/07/10 04:18:52;;;;;;;17.00;14.60;;;;;;;20.47;82.64;100513.66;93144;1214;74077;-61
2021/07/10 04:21:00;;;;;;;14.50;13.00;;;;;;;20.47;82.52;100526.54;93150;1208;80043;-62
2021/07/10 04:23:07;;;;;;;15.90;13.50;;;;;;;20.47;82.67;100519.14;93153;1213;68785;-67
2021/07/10 04:25:19;;;;;;;19.30;14.60;;;;;;;20.50;82.61;100517.81;93166;1208;69500;-67
2021/07/10 04:27:27;;;;;;;19.40;15.20;;;;;;;20.51;82.67;100531.30;93122;1209;86820;-67
2021/07/10 04:29:34;;;;;;;17.50;15.60;;;;;;;20.53;82.62;100545.59;93188;1208;74062;-67
2021/07/10 04:31:42;;;;;;;18.90;15.30;;;;;;;20.53;82.75;100540.11;93182;1208;81223;-67
2021/07/10 04:33:50;;;;;;;16.50;14.90;;;;;;;20.50;82.58;100550.75;93178;1208;66071;-62
2021/07/10 04:36:01;;;;;;;22.60;15.40;;;;;;;20.51;82.54;100547.77;93185;1204;69589;-61
2021/07/10 04:38:10;;;;;;;17.40;14.80;;;;;;;20.49;82.60;100547.16;93160;1209;86247;-67
2021/07/10 04:40:18;;;;;;;19.20;14.90;;;;;;;20.51;82.55;100545.02;93151;1209;74785;-67
2021/07/10 04:42:25;;;;;;;18.60;16.50;;;;;;;20.49;82.55;100541.67;93168;1208;82379;-62
2021/07/10 04:44:33;;;;;;;20.50;16.90;;;;;;;20.49;82.55;100544.42;93147;1209;67787;-61
2021/07/10 04:46:41;;;;;;;22.40;17.40;;;;;;;20.49;82.65;100546.36;93163;1214;68771;-61
2021/07/10 04:48:49;;;;;;;19.80;17.40;;;;;;;20.53;82.73;100542.02;93170;1209;86457;-62
2021/07/10 04:50:56;;;;;;;18.50;16.10;;;;;;;20.56;82.49;100538.77;93154;1208;74628;-62
2021/07/10 04:53:04;;;;;;;19.70;16.60;;;;;;;20.51;82.63;100539.53;93142;1209;80289;-67
2021/07/10 04:55:15;;;;;;;18.50;16.60;;;;;;;20.50;82.59;100529.63;93152;1210;67296;-67
2021/07/10 04:57:23;;;;;;;18.60;16.40;;;;;;;20.48;82.50;100531.80;93177;1214;68717;-63
2021/07/10 04:59:31;;;;;;;19.60;16.00;;;;;;;20.48;82.40;100545.52;93136;1204;85780;-61
2021/07/10 05:01:39;;;;;;;20.50;14.00;;;;;;;20.49;82.33;100543.61;93202;1203;74622;-61
2021/07/10 05:03:49;;;;;;;13.40;11.00;;;;;;;20.44;82.06;100549.00;93151;1209;81255;-61
2021/07/10 05:06:00;;;;;;;10.40;8.80;;;;;;;20.39;81.66;100548.92;93134;1209;67646;-61
2021/07/10 05:08:09;;;;;;;8.20;6.80;;;;;;;20.34;81.40;100548.84;93150;1209;68849;-61
2021/07/10 05:10:21;;;;;;;7.20;5.10;;;;;;;20.28;81.03;100553.41;92986;1209;87473;-61
2021/07/10 05:12:28;;;;;;;6.90;4.30;;;;;;;20.17;80.60;100548.80;93204;1209;74851;-66
2021/07/10 05:14:36;;;;;;;4.50;2.70;;;;;;;19.96;80.25;100549.53;93157;1209;80687;-67
2021/07/10 05:16:45;;;;;;;3.80;2.30;;;;;;;19.80;80.26;100548.44;93132;1210;67146;-67
2021/07/10 05:18:52;;;;;;;3.30;2.10;;;;;;;19.70;79.97;100561.09;93170;1209;67821;-60
2021/07/10 05:21:00;;;;;;;2.10;1.50;;;;;;;19.55;79.81;100558.91;93146;1209;85799;-61
2021/07/10 05:23:07;;;;;;;1.80;1.60;;;;;;;19.46;80.02;100559.52;93181;1210;75243;-67
2021/07/10 05:25:16;;;;;;;2.40;1.40;;;;;;;19.41;79.72;100558.36;93137;1209;82735;-67
2021/07/10 05:27:24;;;;;;;2.80;1.40;;;;;;;19.39;79.49;100567.90;93146;1209;67125;-65
2021/07/10 05:29:35;;;;;;;3.30;1.50;;;;;;;19.37;79.52;100568.09;93194;1209;69181;-67
2021/07/10 05:31:43;;;;;;;5.70;1.50;;;;;;;19.30;79.34;100572.89;93162;1204;87024;-67
2021/07/10 05:33:50;;;;;;;2.70;1.30;;;;;;;19.26;79.38;100566.22;93126;1214;74225;-60
2021/07/10 05:35:58;;;;;;;3.00;1.50;;;;;;;19.20;79.67;100556.22;93168;1204;80859;-61
2021/07/10 05:38:06;;;;;;;3.30;1.70;;;;;;;19.21;79.35;100551.58;93139;1209;66508;-61
2021/07/10 05:40:14;;;;;;;5.60;1.70;;;;;;;19.24;79.59;100551.94;93184;1209;69626;-60
2021/07/10 05:42:22;;;;;;;3.40;2.00;;;;;;;19.30;79.57;100561.09;93158;1207;86928;-65
2021/07/10 05:44:30;;;;;;;6.20;2.10;;;;;;;19.36;79.72;100571.09;93163;1207;74726;-68
2021/07/10 05:46:40;;;;;;;3.80;1.80;;;;;;;19.41;79.68;100561.09;93141;1207;80670;-67
2021/07/10 05:48:48;;;;;;;3.90;1.70;;;;;;;19.50;79.65;100557.97;93153;1214;66863;-60
2021/07/10 05:50:56;;;;;;;2.00;1.70;;;;;;;19.59;79.56;100557.33;93169;1209;70041;-60
2021/07/10 05:53:03;;;;;;;4.60;2.30;;;;;;;19.74;79.69;100576.83;93063;1208;85120;-67
2021/07/10 05:55:12;;;;;;;3.60;1.60;;;;;;;19.84;79.63;100584.39;93141;1214;74353;-67
2021/07/10 05:57:21;;;;;;;3.40;1.70;;;;;;;19.88;79.32;100591.91;93133;1214;80023;-65
2021/07/10 05:59:28;;;;;;;2.50;1.50;;;;;;;19.91;78.68;100602.35;93087;1209;69904;-67
2021/07/10 06:01:36;;;;;;;2.30;1.40;;;;;;;19.83;78.70;100600.00;93207;1209;68212;-68
2021/07/10 06:03:47;;;;;;;2.10;1.50;;;;;;;19.84;78.59;100606.33;93161;1209;86588;-62
2021/07/10 06:05:55;;;;;;;3.60;1.60;;;;;;;19.68;78.48;100609.85;93174;1209;75005;-61
2021/07/10 06:08:03;;;;;;;2.80;1.40;;;;;;;19.58;78.07;100615.14;93190;1209;81882;-62
2021/07/10 06:10:13;;;;;;;3.40;1.50;;;;;;;19.49;78.06;100622.06;93158;1209;68776;-61
2021/07/10 06:12:21;;;;;;;2.80;1.80;;;;;;;19.46;78.20;100606.94;93205;1208;69455;-65
2021/07/10 06:14:32;;;;;;;5.70;1.80;;;;;;;19.44;78.16;100603.62;93186;1209;86796;-62
2021/07/10 06:16:40;;;;;;;2.20;1.50;;;;;;;19.43;77.83;100605.52;93141;1209;75509;-62
2021/07/10 06:18:47;;;;;;;4.40;1.40;;;;;;;19.48;77.75;100606.69;93139;1209;82449;-62
2021/07/10 06:20:55;;;;;;;3.80;2.00;;;;;;;19.58;78.13;100604.17;93077;1209;66675;-61
2021/07/10 06:23:05;;;;;;;1.90;1.40;;;;;;;19.64;77.94;100595.80;93198;1209;69131;-67
2021/07/10 06:25:15;;;;;;;3.10;1.40;;;;;;;19.81;78.19;100591.20;93136;1209;86214;-67
2021/07/10 06:27:22;;;;;;;1.40;1.00;;;;;;;19.92;77.85;100603.19;93164;1210;74035;-61
2021/07/10 06:29:30;;;;;;;4.00;1.50;;;;;;;20.14;78.12;100604.16;92960;1213;81266;-61
2021/07/10 06:31:39;;;;;;;2.60;1.50;;;;;;;20.69;77.83;100606.21;93144;1203;67096;-61
2021/07/10 06:33:46;;;;;;;5.30;1.20;;;;;;;21.06;77.32;100610.93;93070;1208;67912;-62
2021/07/10 06:35:54;;;;;;;4.30;1.60;;;;;;;21.49;77.35;100607.41;93152;1210;85980;-62
2021/07/10 06:38:05;;;;;;;3.30;1.50;;;;;;;23.36;76.99;100604.45;93131;1208;73665;-62
2021/07/10 06:40:16;;;;;;;2.80;1.30;;;;;;;24.63;75.00;100594.58;93140;1210;79974;-62
2021/07/10 06:42:24;;;;;;;4.20;1.40;;;;;;;24.75;73.03;100592.34;93163;1208;69664;-63
2021/07/10 06:44:31;;;;;;;2.80;1.50;;;;;;;24.74;71.56;100590.70;93183;1209;69229;-62
2021/07/10 06:46:42;;;;;;;3.50;1.30;;;;;;;24.37;71.12;100602.03;93134;1208;86756;-61
2021/07/10 06:48:53;;;;;;;1.60;1.20;;;;;;;24.54;70.45;100596.23;93171;1208;74915;-61
2021/07/10 06:51:03;;;;;;;2.40;1.10;;;;;;;24.47;70.86;100598.45;93167;1208;81994;-61
2021/07/10 06:53:11;;;;;;;2.30;1.50;;;;;;;24.91;69.50;100598.73;93139;1209;65440;-68
2021/07/10 06:55:20;;;;;;;2.20;1.60;;;;;;;25.48;68.76;100601.92;93195;1208;69756;-68
2021/07/10 06:57:30;;;;;;;2.50;1.00;;;;;;;25.01;68.30;100610.60;93195;1207;85573;-68
2021/07/10 06:59:38;;;;;;;2.70;1.20;;;;;;;24.80;68.29;100603.45;93237;1199;74979;-68
2021/07/10 07:01:50;;;;;;;4.70;1.20;;;;;;;24.16;67.50;100605.88;93118;1214;81469;-68
2021/07/10 07:03:58;;;;;;;5.40;1.10;;;;;;;23.65;67.45;100617.85;93170;1210;66166;-68
2021/07/10 07:06:06;;;;;;;1.90;1.10;;;;;;;23.34;68.40;100612.17;93149;1209;69154;-68
2021/07/10 07:08:13;;;;;;;3.10;1.20;;;;;;;23.24;68.56;100609.34;93124;1210;85737;-68
2021/07/10 07:10:24;;;;;;;4.20;1.40;;;;;;;23.08;68.39;100613.11;93158;1209;73697;-68
2021/07/10 07:12:32;;;;;;;3.30;1.30;;;;;;;22.81;69.03;100610.45;93173;1214;80637;-62
2021/07/10 07:14:39;;;;;;;2.60;1.20;;;;;;;22.47;68.88;100617.29;92960;1213;65508;-62
2021/07/10 07:16:47;;;;;;;2.80;1.40;;;;;;;22.25;69.42;100622.03;93138;1209;69148;-60
2021/07/10 07:18:55;;;;;;;5.40;1.50;;;;;;;22.15;69.75;100635.70;93144;1209;86986;-61
2021/07/10 07:21:03;;;;;;;2.30;1.10;;;;;;;22.23;69.61;100636.07;93124;1209;75287;-61
2021/07/10 07:23:10;;;;;;;2.50;1.10;;;;;;;22.38;70.00;100624.39;93174;1209;82042;-69
2021/07/10 07:25:20;;;;;;;2.00;1.00;;;;;;;23.63;70.68;100628.30;93163;1204;66406;-69
2021/07/10 07:27:31;;;;;;;1.10;1.00;;;;;;;25.69;69.18;100627.56;93154;1209;69456;-68
2021/07/10 07:29:41;;;;;;;2.00;1.00;;;;;;;27.80;66.15;100618.60;93134;1209;86788;-68
2021/07/10 07:31:49;;;;;;;2.00;0.90;;;;;;;29.59;63.90;100619.78;93169;1209;75498;-68
2021/07/10 07:33:57;;;;;;;1.70;0.90;;;;;;;30.76;60.14;100599.28;93223;1209;81083;-61
2021/07/10 07:36:08;;;;;;;2.10;0.90;;;;;;;31.42;58.21;100609.50;93176;1209;67380;-61
2021/07/10 07:38:16;;;;;;;1.70;0.80;;;;;;;31.44;55.42;100610.82;93185;1209;69573;-68
2021/07/10 07:40:27;;;;;;;2.00;0.70;;;;;;;31.36;54.47;100616.37;93163;1209;86819;-68
2021/07/10 07:42:35;;;;;;;2.30;0.80;;;;;;;30.37;53.89;100627.86;93170;1214;74050;-61
2021/07/10 07:44:43;;;;;;;2.70;0.80;;;;;;;29.35;54.10;100631.13;93158;1209;81557;-60
2021/07/10 07:46:51;;;;;;;1.30;0.90;;;;;;;28.25;54.33;100637.42;93163;1209;65060;-61
2021/07/10 07:48:59;;;;;;;2.40;0.80;;;;;;;27.40;55.36;100645.73;93121;1204;69498;-68
2021/07/10 07:51:09;;;;;;;1.50;0.70;;;;;;;26.95;56.55;100651.69;93145;1209;87624;-69
2021/07/10 07:53:19;;;;;;;1.00;0.60;;;;;;;27.23;56.39;100652.81;93219;1214;75288;-62
2021/07/10 07:55:26;;;;;;;1.90;0.70;;;;;;;28.31;56.83;100652.90;93133;1208;81270;-60
2021/07/10 07:57:34;;;;;;;1.90;0.80;;;;;;;29.61;55.30;100650.95;93173;1208;65987;-67
2021/07/10 07:59:42;;;;;;;1.50;0.60;;;;;;;29.60;54.18;100660.43;93171;1209;69312;-68
2021/07/10 08:01:50;;;;;;;1.80;0.80;;;;;;;30.00;52.96;100664.34;93143;1214;86068;-68
2021/07/10 08:03:57;;;;;;;1.10;0.70;;;;;;;29.76;52.84;100668.17;93144;1208;73952;-68
2021/07/10 08:06:06;;;;;;;2.00;0.40;;;;;;;28.96;52.11;100658.54;93157;1209;80152;-68
2021/07/10 08:08:14;;;;;;;1.20;0.60;;;;;;;28.47;53.41;100661.83;93165;1209;67116;-61
2021/07/10 08:10:22;;;;;;;2.40;0.70;;;;;;;27.87;53.47;100658.77;93142;1209;68538;-61
2021/07/10 08:12:29;;;;;;;1.60;0.70;;;;;;;28.47;55.01;100659.88;93169;1209;86989;-68
2021/07/10 08:14:38;;;;;;;2.20;0.60;;;;;;;29.32;53.53;100656.80;93188;1203;75461;-69
2021/07/10 08:16:45;;;;;;;1.40;0.90;;;;;;;30.17;52.31;100658.95;93177;1211;81842;-68
2021/07/10 08:18:54;;;;;;;2.20;0.60;;;;;;;30.85;51.88;100667.92;93145;1208;65407;-61
2021/07/10 08:21:05;;;;;;;2.10;0.70;;;;;;;30.26;50.65;100679.38;92957;1208;69319;-61
2021/07/10 08:23:13;;;;;;;3.10;0.60;;;;;;;29.15;50.96;100678.78;93139;1209;86261;-68
2021/07/10 08:25:21;;;;;;;1.60;0.70;;;;;;;28.44;51.54;100687.44;93157;1209;73732;-69
2021/07/10 08:27:32;;;;;;;1.70;0.70;;;;;;;27.78;52.49;100679.14;93151;1208;81603;-68
2021/07/10 08:29:42;;;;;;;2.90;1.70;;;;;;;27.10;52.87;100690.40;93192;1208;65830;-69
2021/07/10 08:31:53;;;;;;;1.80;0.70;;;;;;;26.63;53.75;100676.34;93157;1209;69480;-68
2021/07/10 08:34:01;;;;;;;1.80;0.60;;;;;;;26.02;54.04;100681.39;93158;1209;86681;-60
2021/07/10 08:36:09;;;;;;;1.90;0.80;;;;;;;25.70;55.19;100663.27;93186;1207;74029;-60
2021/07/10 08:38:17;;;;;;;1.00;0.70;;;;;;;25.43;55.84;100678.55;93171;1203;82832;-62
2021/07/10 08:40:24;;;;;;;1.80;0.70;;;;;;;25.21;56.25;100687.16;93161;1209;65575;-66
2021/07/10 08:42:35;;;;;;;2.10;0.90;;;;;;;24.96;56.72;100688.02;93149;1209;68344;-66
2021/07/10 08:44:51;;;;;;;1.10;0.60;;;;;;;24.76;56.61;100699.02;93161;1207;86729;-60
2021/07/10 08:47:00;;;;;;;3.20;0.60;;;;;;;24.51;57.07;100698.99;93151;1209;74023;-72
2021/07/10 08:49:08;;;;;;;1.40;0.70;;;;;;;24.32;57.80;100703.38;93179;1209;81170;-72
2021/07/10 08:51:19;;;;;;;1.90;0.70;;;;;;;24.13;58.29;100700.28;93148;1208;66815;-71
2021/07/10 08:53:27;;;;;;;3.10;1.10;;;;;;;23.98;58.47;100701.02;93144;1209;69447;-62
2021/07/10 08:55:38;;;;;;;1.50;0.70;;;;;;;23.82;59.31;100701.22;93146;1208;85587;-67
2021/07/10 08:57:46;;;;;;;1.80;0.70;;;;;;;23.72;59.21;100702.02;93151;1209;73945;-67
2021/07/10 08:59:53;;;;;;;2.40;0.70;;;;;;;23.77;59.90;100696.52;93181;1208;81793;-67
2021/07/10 09:02:01;;;;;;;1.80;0.70;;;;;;;23.98;60.51;100695.50;93167;1214;65414;-66
2021/07/10 09:04:09;;;;;;;2.70;0.70;;;;;;;24.20;59.76;100700.84;93192;1209;69032;-67
2021/07/10 09:06:20;;;;;;;3.90;0.70;;;;;;;24.80;61.66;100697.41;93140;1209;86423;-66
2021/07/10 09:08:32;;;;;;;2.60;0.60;;;;;;;25.64;59.74;100696.77;93195;1207;74530;-67
2021/07/10 09:10:42;;;;;;;0.90;0.70;;;;;;;26.05;59.54;100692.73;93144;1208;82005;-67
2021/07/10 09:12:58;;;;;;;1.20;0.70;;;;;;;26.65;58.86;100687.95;93170;1206;66824;-67
2021/07/10 09:15:22;;;;;;;3.20;0.60;;;;;;;27.64;57.79;100701.23;93209;1203;67763;-65
2021/07/10 09:17:32;;;;;;;;;;;;;;;28.12;56.28;100696.52;93241;1210;86900;-65
2021/07/10 09:19:39;;;;;;;0.90;0.70;;;;;;;28.01;55.38;100700.52;93201;1208;74978;-66
2021/07/10 09:21:51;;;;;;;2.70;1.00;;;;;;;28.06;54.87;100712.43;93124;1208;81156;-66
2021/07/10 09:23:58;;;;;;;2.40;0.80;;;;;;;27.66;54.83;100709.29;93223;1209;65790;-65
2021/07/10 09:26:26;;;;;;;2.00;0.70;;;;;;;27.34;53.97;100709.85;93166;1208;70023;-65
2021/07/10 09:28:33;;;;;;;2.90;1.10;;;;;;;27.10;54.83;100708.98;93233;1203;87025;-65
2021/07/10 09:30:43;;;;;;;3.10;0.90;;;;;;;26.99;54.66;100707.41;93179;1208;75627;-65
2021/07/10 09:33:16;;;;;;;1.10;0.70;;;;;;;26.97;55.97;100704.94;93172;1208;81524;-66
2021/07/10 09:35:32;;;;;;;3.20;0.80;;;;;;;27.17;54.75;100703.91;93203;1203;66974;-66
2021/07/10 09:37:40;;;;;;;1.90;0.70;;;;;;;27.12;55.75;100702.02;93213;1210;69517;-66
2021/07/10 09:39:57;;;;;;;2.00;0.70;;;;;;;27.07;55.43;100704.84;92945;1208;86390;-66
2021/07/10 09:42:07;;;;;;;1.30;0.70;;;;;;;26.96;55.26;100706.05;93169;1214;75631;-66
2021/07/10 09:44:17;;;;;;;2.40;0.80;;;;;;;26.89;54.50;100720.23;93198;1209;80843;-66
2021/07/10 09:46:29;;;;;;;1.20;0.70;;;;;;;26.73;54.83;100709.52;93157;1209;65912;-66
2021/07/10 09:48:41;;;;;;;2.00;0.90;;;;;;;26.50;55.37;100710.24;93210;1209;69617;-66
2021/07/10 09:50:51;;;;;;;2.70;0.80;;;;;;;26.33;55.05;100716.16;93156;1209;87007;-66
2021/07/10 09:52:59;;;;;;;0.80;0.70;;;;;;;26.52;55.82;100713.55;93196;1206;75808;-66
2021/07/10 09:55:11;;;;;;;1.60;0.80;;;;;;;27.03;55.22;100705.72;93169;1208;81246;-66